createdAt,value
2023-01-13T00:01:26.957Z,3.80
2023-01-13T00:03:55.587Z,4.30
2023-01-13T00:06:29.243Z,4.10
2023-01-13T00:08:57.806Z,4.10
2023-01-13T00:11:26.313Z,5.10
2023-01-13T00:13:54.450Z,5.90
2023-01-13T00:16:22.237Z,4.30
2023-01-13T00:18:52.979Z,3.80
2023-01-13T00:21:23.672Z,4.30
2023-01-13T00:23:54.034Z,4.30
2023-01-13T00:26:24.489Z,3.90
2023-01-13T00:28:57.785Z,3.80
2023-01-13T00:31:26.520Z,3.90
2023-01-13T00:33:57.237Z,4.00
2023-01-13T00:36:25.581Z,3.60
2023-01-13T00:38:53.706Z,4.90
2023-01-13T00:41:24.292Z,3.60
2023-01-13T00:43:52.129Z,3.60
2023-01-13T00:46:22.065Z,4.10
2023-01-13T00:48:51.475Z,3.10
2023-01-13T00:51:21.025Z,3.30
2023-01-13T00:53:51.501Z,4.40
2023-01-13T00:56:38.970Z,3.40
2023-01-13T00:59:13.621Z,3.60
2023-01-13T01:01:42.193Z,4.10
2023-01-13T01:04:10.999Z,3.80
2023-01-13T01:06:38.777Z,3.60
2023-01-13T01:09:07.037Z,4.20
2023-01-13T01:11:34.957Z,4.20
2023-01-13T01:14:07.426Z,3.70
2023-01-13T01:16:35.448Z,4.40
2023-01-13T01:19:03.888Z,4.20
2023-01-13T01:21:33.072Z,4.00
2023-01-13T01:24:03.598Z,4.60
2023-01-13T01:26:31.915Z,5.20
2023-01-13T01:29:02.165Z,4.50
2023-01-13T01:31:32.518Z,4.20
2023-01-13T01:34:01.324Z,4.30
2023-01-13T01:36:31.939Z,4.40
2023-01-13T01:39:00.390Z,4.50
2023-01-13T01:41:32.029Z,4.20
2023-01-13T01:44:06.672Z,3.90
2023-01-13T01:46:50.664Z,5.10
2023-01-13T01:49:25.239Z,4.10
2023-01-13T01:51:55.885Z,4.20
2023-01-13T01:54:28.607Z,4.60
2023-01-13T01:56:56.539Z,4.80
2023-01-13T01:59:27.291Z,4.40
2023-01-13T02:01:55.167Z,4.40
2023-01-13T02:04:30.255Z,4.30
2023-01-13T02:06:58.185Z,4.10
2023-01-13T02:09:27.024Z,4.10
2023-01-13T02:12:10.770Z,4.30
2023-01-13T02:14:39.239Z,4.50
2023-01-13T02:23:39.447Z,5.00
2023-01-13T02:29:48.296Z,5.00
2023-01-13T02:32:29.086Z,6.00
2023-01-13T02:35:23.109Z,5.60
2023-01-13T02:37:51.750Z,6.50
2023-01-13T02:40:29.293Z,6.60
2023-01-13T02:43:21.660Z,6.50
2023-01-13T02:46:03.315Z,6.30
2023-01-13T02:48:32.193Z,6.90
2023-01-13T02:51:10.553Z,6.40
2023-01-13T02:53:48.356Z,7.10
2023-01-13T02:56:18.086Z,6.40
2023-01-13T02:58:47.113Z,6.40
2023-01-13T03:01:14.874Z,6.10
2023-01-13T03:03:43.852Z,6.60
2023-01-13T03:06:45.527Z,6.30
2023-01-13T03:09:45.319Z,6.00
2023-01-13T03:12:21.308Z,5.80
2023-01-13T03:15:10.584Z,6.40
2023-01-13T03:18:13.715Z,5.70
2023-01-13T03:20:56.398Z,5.70
2023-01-13T03:23:39.033Z,6.30
2023-01-13T03:26:34.727Z,5.80
2023-01-13T03:29:13.077Z,6.10
2023-01-13T03:31:53.773Z,5.60
2023-01-13T03:34:25.381Z,6.00
2023-01-13T03:37:06.887Z,6.20
2023-01-13T03:39:41.811Z,6.10
2023-01-13T03:42:25.195Z,5.90
2023-01-13T03:44:56.299Z,5.80
2023-01-13T03:47:33.968Z,6.20
2023-01-13T03:50:11.086Z,5.70
2023-01-13T03:52:50.539Z,6.10
2023-01-13T03:55:27.358Z,6.10
2023-01-13T03:58:10.923Z,6.40
2023-01-13T04:00:46.589Z,5.90
2023-01-13T04:03:25.110Z,6.10
2023-01-13T04:06:09.700Z,5.60
2023-01-13T04:08:52.444Z,6.20
2023-01-13T04:11:36.141Z,5.80
2023-01-13T04:14:06.438Z,5.80
2023-01-13T04:16:36.287Z,5.70
2023-01-13T04:19:06.433Z,5.10
2023-01-13T04:21:40.364Z,5.80
2023-01-13T04:24:08.787Z,5.50
2023-01-13T04:26:36.405Z,5.40
2023-01-13T04:29:04.280Z,5.30
2023-01-13T04:31:31.943Z,5.30
2023-01-13T04:33:59.631Z,5.80
2023-01-13T04:36:30.062Z,6.20
2023-01-13T04:38:57.712Z,6.10
2023-01-13T04:41:25.414Z,8.60
2023-01-13T04:43:53.116Z,7.50
2023-01-13T04:46:20.864Z,5.80
2023-01-13T04:48:48.483Z,7.40
2023-01-13T04:51:16.069Z,16.70
2023-01-13T04:53:43.666Z,12.50
2023-01-13T04:56:11.270Z,9.80
2023-01-13T04:58:38.897Z,5.70
2023-01-13T05:01:07.190Z,4.50
2023-01-13T05:03:34.798Z,5.20
2023-01-13T05:06:02.614Z,5.10
2023-01-13T05:08:30.263Z,5.00
2023-01-13T05:11:00.605Z,4.60
2023-01-13T05:13:44.173Z,4.70
2023-01-13T05:16:28.241Z,4.80
2023-01-13T05:18:55.954Z,5.60
2023-01-13T05:21:39.508Z,6.50
2023-01-13T05:24:26.128Z,27.20
2023-01-13T05:26:53.760Z,26.60
2023-01-13T05:29:21.581Z,8.10
2023-01-13T05:31:49.149Z,4.50
2023-01-13T05:34:16.821Z,7.90
2023-01-13T05:36:44.356Z,5.30
2023-01-13T05:39:11.972Z,5.40
2023-01-13T05:41:54.458Z,4.50
2023-01-13T05:44:22.067Z,4.50
2023-01-13T05:46:49.874Z,6.10
2023-01-13T05:49:17.508Z,7.90
2023-01-13T05:51:45.099Z,5.50
2023-01-13T05:54:12.769Z,11.50
2023-01-13T05:56:40.389Z,6.80
2023-01-13T05:59:07.965Z,5.60
2023-01-13T06:01:37.264Z,4.60
2023-01-13T06:04:05.231Z,4.50
2023-01-13T06:06:32.870Z,6.80
2023-01-13T06:09:00.452Z,8.80
2023-01-13T06:11:28.016Z,9.60
2023-01-13T06:13:55.608Z,8.10
2023-01-13T06:16:23.200Z,7.50
2023-01-13T06:18:50.836Z,13.00
2023-01-13T06:21:18.387Z,20.10
2023-01-13T06:23:46.201Z,18.10
2023-01-13T06:26:19.614Z,20.30
2023-01-13T06:28:47.215Z,11.80
2023-01-13T06:31:14.865Z,10.90
2023-01-13T06:33:55.192Z,16.80
2023-01-13T06:36:29.493Z,11.90
2023-01-13T06:39:02.007Z,11.90
2023-01-13T06:41:48.229Z,8.00
2023-01-13T06:44:15.895Z,11.60
2023-01-13T06:46:43.700Z,7.90
2023-01-13T06:49:11.407Z,5.90
2023-01-13T06:51:38.971Z,6.40
2023-01-13T06:54:06.803Z,7.50
2023-01-13T06:56:34.765Z,8.70
2023-01-13T06:59:02.421Z,9.40
2023-01-13T07:01:33.734Z,13.90
2023-01-13T07:04:02.642Z,10.80
2023-01-13T07:06:30.897Z,11.10
2023-01-13T07:08:59.119Z,10.60
2023-01-13T07:11:27.013Z,8.60
2023-01-13T07:14:10.717Z,11.30
2023-01-13T07:16:38.457Z,11.30
2023-01-13T07:19:06.063Z,10.70
2023-01-13T07:21:33.840Z,14.70
2023-01-13T07:24:01.466Z,12.80
2023-01-13T07:27:09.607Z,13.00
2023-01-13T07:29:37.822Z,8.60
2023-01-13T07:32:06.988Z,9.70
2023-01-13T07:34:35.094Z,12.20
2023-01-13T07:37:02.901Z,12.30
2023-01-13T07:39:30.641Z,17.40
2023-01-13T07:42:14.313Z,18.10
2023-01-13T07:44:42.186Z,23.30
2023-01-13T07:47:12.365Z,20.60
2023-01-13T07:49:40.518Z,19.10
2023-01-13T07:52:09.046Z,16.70
2023-01-13T07:54:41.057Z,23.70
2023-01-13T07:57:09.354Z,20.10
2023-01-13T07:59:37.100Z,14.30
2023-01-13T08:02:05.176Z,15.30
2023-01-13T08:04:34.001Z,10.30
2023-01-13T08:07:01.584Z,10.50
2023-01-13T08:09:29.356Z,13.50
2023-01-13T08:12:13.165Z,11.70
2023-01-13T08:14:40.945Z,18.30
2023-01-13T08:17:09.886Z,22.00
2023-01-13T08:19:38.472Z,19.40
2023-01-13T08:22:06.300Z,20.00
2023-01-13T08:24:34.288Z,17.50
2023-01-13T08:27:02.258Z,21.20
2023-01-13T08:29:29.981Z,15.40
2023-01-13T08:31:57.506Z,16.00
2023-01-13T08:34:25.273Z,11.10
2023-01-13T08:36:52.882Z,15.40
2023-01-13T08:39:20.721Z,10.80
2023-01-13T08:42:04.545Z,10.50
2023-01-13T08:44:33.277Z,12.20
2023-01-13T08:47:00.978Z,10.50
2023-01-13T08:49:29.143Z,10.80
2023-01-13T08:51:57.158Z,10.50
2023-01-13T08:54:27.631Z,8.80
2023-01-13T08:56:57.365Z,12.20
2023-01-13T08:59:25.405Z,11.90
2023-01-13T09:01:53.191Z,9.30
2023-01-13T09:04:24.620Z,13.00
2023-01-13T09:06:52.245Z,8.40
2023-01-13T09:09:19.859Z,10.80
2023-01-13T09:12:04.583Z,11.10
2023-01-13T09:14:34.961Z,14.80
2023-01-13T09:17:03.429Z,17.40
2023-01-13T09:19:31.210Z,13.80
2023-01-13T09:21:59.079Z,8.30
2023-01-13T09:24:26.749Z,12.00
2023-01-13T09:26:54.609Z,17.00
2023-01-13T09:29:22.770Z,13.40
2023-01-13T09:31:50.450Z,12.30
2023-01-13T09:34:35.352Z,15.50
2023-01-13T09:37:04.233Z,9.40
2023-01-13T09:39:36.287Z,8.70
2023-01-13T09:42:35.967Z,7.10
2023-01-13T09:45:22.579Z,11.50
2023-01-13T09:47:59.927Z,14.50
2023-01-13T09:50:38.409Z,18.60
2023-01-13T09:53:16.636Z,24.70
2023-01-13T09:55:45.621Z,19.60
2023-01-13T09:58:18.535Z,23.90
2023-01-13T10:01:03.476Z,15.20
2023-01-13T10:03:33.654Z,16.30
2023-01-13T10:06:17.338Z,17.70
2023-01-13T10:08:47.692Z,14.00
2023-01-13T10:11:35.798Z,12.70
2023-01-13T10:14:22.575Z,10.70
2023-01-13T10:16:52.927Z,11.50
2023-01-13T10:19:33.211Z,12.80
2023-01-13T10:22:23.031Z,13.50
2023-01-13T10:25:22.630Z,27.90
2023-01-13T10:27:56.248Z,26.90
2023-01-13T10:30:31.714Z,27.10
2023-01-13T10:33:02.190Z,21.30
2023-01-13T10:35:49.723Z,18.60
2023-01-13T10:38:27.796Z,15.80
2023-01-13T10:41:05.148Z,21.40
2023-01-13T10:43:36.278Z,15.40
2023-01-13T10:46:16.287Z,18.20
2023-01-13T10:49:01.571Z,23.40
2023-01-13T10:51:38.510Z,29.40
2023-01-13T10:54:22.253Z,27.30
2023-01-13T10:57:10.511Z,18.90
2023-01-13T10:59:38.029Z,16.80
2023-01-13T11:02:24.303Z,17.70
2023-01-13T11:04:53.326Z,10.10
2023-01-13T11:07:40.074Z,13.90
2023-01-13T11:10:31.166Z,11.10
2023-01-13T11:13:05.299Z,20.70
2023-01-13T11:16:04.832Z,30.10
2023-01-13T11:19:13.111Z,27.30
2023-01-13T11:21:49.596Z,8.00
2023-01-13T11:24:40.205Z,14.10
2023-01-13T11:27:39.671Z,15.80
2023-01-13T11:30:10.026Z,15.10
2023-01-13T11:32:46.326Z,14.90
2023-01-13T11:35:20.749Z,11.70
2023-01-13T11:37:56.138Z,21.70
2023-01-13T11:40:23.828Z,17.40
2023-01-13T11:43:18.297Z,17.40
2023-01-13T11:45:54.210Z,29.70
2023-01-13T11:48:29.652Z,17.50
2023-01-13T11:51:05.286Z,30.30
2023-01-13T11:53:54.265Z,13.50
2023-01-13T11:56:44.430Z,28.00
2023-01-13T11:59:32.231Z,9.20
2023-01-13T12:02:20.844Z,11.90
2023-01-13T12:05:16.731Z,11.20
2023-01-13T12:08:18.292Z,8.50
2023-01-13T12:11:07.073Z,12.40
2023-01-13T12:13:51.596Z,9.70
2023-01-13T12:16:26.927Z,13.20
2023-01-13T12:19:11.100Z,6.70
2023-01-13T12:21:48.880Z,24.80
2023-01-13T12:24:42.788Z,11.00
2023-01-13T12:27:40.700Z,13.00
2023-01-13T12:30:48.383Z,17.30
2023-01-13T12:33:50.887Z,19.20
2023-01-13T12:36:43.443Z,16.60
2023-01-13T12:39:48.994Z,6.40
2023-01-13T12:42:56.604Z,6.60
2023-01-13T12:45:29.543Z,11.80
2023-01-13T12:48:01.641Z,7.90
2023-01-13T12:50:29.515Z,8.90
2023-01-13T12:53:21.314Z,7.30
2023-01-13T12:55:53.121Z,13.20
2023-01-13T12:58:28.928Z,6.60
2023-01-13T13:01:14.474Z,14.20
2023-01-13T13:04:02.544Z,6.50
2023-01-13T13:06:31.521Z,11.70
2023-01-13T13:09:18.590Z,9.10
2023-01-13T13:12:05.932Z,7.10
2023-01-13T13:14:37.031Z,9.30
2023-01-13T13:17:32.861Z,13.30
2023-01-13T13:20:03.245Z,5.90
2023-01-13T13:22:44.331Z,7.50
2023-01-13T13:25:28.144Z,12.40
2023-01-13T13:28:09.734Z,12.60
2023-01-13T13:30:44.077Z,26.30
2023-01-13T13:33:42.721Z,11.10
2023-01-13T13:36:26.775Z,9.40
2023-01-13T13:39:44.719Z,17.80
2023-01-13T13:42:34.441Z,7.40
2023-01-13T13:45:27.165Z,11.90
2023-01-13T13:47:54.920Z,7.50
2023-01-13T13:50:23.715Z,6.50
2023-01-13T13:53:08.647Z,8.70
2023-01-13T13:55:36.754Z,8.70
2023-01-13T13:58:05.796Z,10.00
2023-01-13T14:00:35.962Z,23.00
2023-01-13T14:03:29.489Z,7.50
2023-01-13T14:06:03.447Z,18.70
2023-01-13T14:08:35.626Z,12.60
2023-01-13T14:11:29.760Z,6.20
2023-01-13T14:14:07.096Z,13.20
2023-01-13T14:16:37.706Z,22.70
2023-01-13T14:19:05.674Z,17.70
2023-01-13T14:21:33.755Z,17.90
2023-01-13T14:24:20.520Z,17.30
2023-01-13T14:26:51.967Z,17.30
2023-01-13T14:29:24.356Z,14.20
2023-01-13T14:31:54.798Z,31.60
2023-01-13T14:34:33.451Z,13.70
2023-01-13T14:37:03.225Z,8.50
2023-01-13T14:42:35.607Z,8.00
2023-01-13T14:45:24.765Z,9.00
2023-01-13T14:47:54.057Z,10.80
2023-01-13T14:53:51.829Z,8.00
2023-01-13T14:56:43.108Z,7.10
2023-01-13T14:59:46.122Z,21.20
2023-01-13T15:02:30.923Z,7.00
2023-01-13T15:05:22.543Z,6.20
2023-01-13T15:08:12.844Z,8.10
2023-01-13T15:11:01.661Z,11.60
2023-01-13T15:13:29.275Z,17.20
2023-01-13T15:16:00.579Z,7.30
2023-01-13T15:18:28.265Z,8.70
2023-01-13T15:20:56.049Z,6.90
2023-01-13T15:23:24.047Z,9.10
2023-01-13T15:25:51.759Z,14.90
2023-01-13T15:28:25.271Z,15.70
2023-01-13T15:30:55.328Z,20.00
2023-01-13T15:33:23.175Z,13.30
2023-01-13T15:36:02.148Z,17.00
2023-01-13T15:38:29.754Z,24.60
2023-01-13T15:40:57.411Z,19.50
2023-01-13T15:43:40.969Z,17.40
2023-01-13T15:46:36.219Z,17.90
2023-01-13T15:49:37.582Z,36.00
2023-01-13T15:52:32.429Z,22.30
2023-01-13T15:54:59.995Z,39.80
2023-01-13T15:57:34.493Z,20.50
2023-01-13T16:00:08.018Z,12.20
2023-01-13T16:02:35.635Z,13.10
2023-01-13T16:05:04.260Z,14.90
2023-01-13T16:07:32.056Z,18.50
2023-01-13T16:10:02.018Z,24.70
2023-01-13T16:12:29.655Z,20.20
2023-01-13T16:14:57.972Z,22.10
2023-01-13T16:17:29.606Z,18.00
2023-01-13T16:19:57.176Z,21.00
2023-01-13T16:22:24.771Z,25.40
2023-01-13T16:24:52.387Z,18.60
2023-01-13T16:27:22.989Z,17.80
2023-01-13T16:29:52.535Z,37.70
2023-01-13T16:32:21.067Z,16.30
2023-01-13T16:34:49.562Z,15.40
2023-01-13T16:37:27.243Z,16.10
2023-01-13T16:39:55.185Z,40.60
2023-01-13T16:42:23.140Z,46.70
2023-01-13T16:44:52.769Z,17.40
2023-01-13T16:47:23.743Z,9.60
2023-01-13T16:49:51.529Z,8.40
2023-01-13T16:52:19.218Z,7.40
2023-01-13T16:54:46.884Z,8.40
2023-01-13T16:57:15.088Z,9.50
2023-01-13T16:59:42.840Z,8.20
2023-01-13T17:02:16.324Z,8.80
2023-01-13T17:04:44.919Z,8.40
2023-01-13T17:07:16.716Z,8.00
2023-01-13T17:09:44.413Z,13.80
2023-01-13T17:12:12.059Z,18.00
2023-01-13T17:14:40.132Z,22.90
2023-01-13T17:17:22.959Z,23.30
2023-01-13T17:19:51.620Z,24.30
2023-01-13T17:22:20.305Z,20.10
2023-01-13T17:24:48.813Z,19.20
2023-01-13T17:27:18.520Z,16.90
2023-01-13T17:29:46.215Z,17.20
2023-01-13T17:32:22.908Z,24.80
2023-01-13T17:34:51.721Z,22.30
2023-01-13T17:37:19.488Z,20.20
2023-01-13T17:39:48.358Z,11.40
2023-01-13T17:42:16.086Z,16.10
2023-01-13T17:44:44.057Z,15.30
2023-01-13T17:47:11.752Z,15.00
2023-01-13T17:49:39.639Z,14.80
2023-01-13T17:52:07.512Z,15.80
2023-01-13T17:54:35.799Z,16.30
2023-01-13T17:57:04.165Z,11.90
2023-01-13T17:59:31.872Z,11.70
2023-01-13T18:01:59.681Z,10.10
2023-01-13T18:04:30.720Z,10.70
2023-01-13T18:06:58.401Z,8.90
2023-01-13T18:09:26.689Z,10.60
2023-01-13T18:11:54.317Z,10.20
2023-01-13T18:14:22.496Z,8.20
2023-01-13T18:16:51.116Z,10.30
2023-01-13T18:19:34.993Z,9.60
2023-01-13T18:22:18.719Z,11.50
2023-01-13T18:25:02.360Z,10.10
2023-01-13T18:27:35.860Z,28.50
2023-01-13T18:30:07.240Z,17.40
2023-01-13T18:32:36.039Z,32.40
2023-01-13T18:37:56.170Z,18.00
2023-01-13T18:40:24.157Z,11.80
2023-01-13T18:42:52.192Z,30.20
2023-01-13T18:45:25.763Z,21.40
2023-01-13T18:48:00.065Z,13.10
2023-01-13T18:50:30.868Z,12.00
2023-01-13T18:53:01.390Z,13.20
2023-01-13T18:55:29.312Z,15.30
2023-01-13T18:57:57.781Z,12.40
2023-01-13T19:00:27.046Z,20.10
2023-01-13T19:03:12.738Z,13.70
2023-01-13T19:05:42.872Z,13.20
2023-01-13T19:08:11.378Z,13.20
2023-01-13T19:10:39.639Z,13.90
2023-01-13T19:13:07.310Z,11.20
2023-01-13T19:15:41.668Z,13.70
2023-01-13T19:18:09.457Z,12.20
2023-01-13T19:20:38.156Z,12.30
2023-01-13T19:23:08.191Z,12.30
2023-01-13T19:25:37.003Z,8.20
2023-01-13T19:28:05.850Z,10.40
2023-01-13T19:30:33.619Z,12.70
2023-01-13T19:33:01.408Z,18.90
2023-01-13T19:35:29.603Z,9.10
2023-01-13T19:38:00.402Z,8.50
2023-01-13T19:40:28.198Z,8.60
2023-01-13T19:43:11.787Z,12.10
2023-01-13T19:45:39.868Z,11.70
2023-01-13T19:48:08.376Z,11.50
2023-01-13T19:50:38.640Z,10.00
2023-01-13T19:53:07.664Z,11.70
2023-01-13T19:55:35.440Z,9.30
2023-01-13T19:58:03.904Z,11.20
2023-01-13T20:00:31.985Z,12.80
2023-01-13T20:03:03.664Z,12.50
2023-01-13T20:05:31.396Z,12.40
2023-01-13T20:07:59.200Z,10.60
2023-01-13T20:10:30.125Z,9.80
2023-01-13T20:12:58.036Z,26.00
2023-01-13T20:15:25.657Z,14.80
2023-01-13T20:17:53.341Z,16.50
2023-01-13T20:20:21.176Z,8.00
2023-01-13T20:22:49.658Z,9.10
2023-01-13T20:25:18.739Z,8.60
2023-01-13T20:27:48.022Z,11.10
2023-01-13T20:30:16.126Z,7.80
2023-01-13T20:32:44.524Z,29.60
2023-01-13T20:35:12.283Z,8.80
2023-01-13T20:37:44.462Z,6.70
2023-01-13T20:40:15.751Z,8.50
2023-01-13T20:42:46.466Z,7.00
2023-01-13T20:45:19.737Z,6.10
2023-01-13T20:47:47.475Z,7.60
2023-01-13T20:50:16.113Z,9.10
2023-01-13T20:52:44.334Z,8.40
2023-01-13T20:55:13.015Z,6.40
2023-01-13T20:57:42.849Z,7.50
2023-01-13T21:00:11.236Z,7.80
2023-01-13T21:02:41.814Z,6.30
2023-01-13T21:05:10.122Z,6.10
2023-01-13T21:07:38.197Z,11.00
2023-01-13T21:10:07.930Z,5.90
2023-01-13T21:12:51.540Z,4.80
2023-01-13T21:15:22.759Z,5.80
2023-01-13T21:18:07.721Z,6.20
2023-01-13T21:20:37.767Z,8.80
2023-01-13T21:23:05.912Z,5.90
2023-01-13T21:25:35.498Z,6.70
2023-01-13T21:28:05.653Z,6.70
2023-01-13T21:30:35.472Z,6.00
2023-01-13T21:33:04.200Z,5.40
2023-01-13T21:35:32.113Z,5.20
2023-01-13T21:37:59.760Z,6.40
2023-01-13T21:40:27.445Z,6.30
2023-01-13T21:43:11.040Z,4.90
2023-01-13T21:45:55.256Z,7.90
2023-01-13T21:48:22.893Z,7.50
2023-01-13T21:50:50.534Z,6.00
2023-01-13T21:53:18.153Z,9.20
2023-01-13T21:55:51.287Z,6.80
2023-01-13T21:58:19.072Z,9.70
2023-01-13T22:00:49.251Z,9.90
2023-01-13T22:03:18.748Z,8.80
2023-01-13T22:05:52.713Z,9.70
2023-01-13T22:08:20.287Z,7.80
2023-01-13T22:11:03.895Z,9.20
2023-01-13T22:13:48.131Z,8.20
2023-01-13T22:16:16.699Z,8.10
2023-01-13T22:18:44.408Z,7.00
2023-01-13T22:21:12.111Z,6.20
2023-01-13T22:23:39.736Z,6.30
2023-01-13T22:26:08.322Z,8.30
2023-01-13T22:28:51.395Z,5.50
2023-01-13T22:31:23.881Z,6.10
2023-01-13T22:33:53.635Z,6.00
2023-01-13T22:36:24.281Z,8.60
2023-01-13T22:38:56.944Z,5.80
2023-01-13T22:41:24.589Z,4.80
2023-01-13T22:43:52.224Z,4.50
2023-01-13T22:46:19.902Z,3.80
2023-01-13T22:48:49.667Z,3.80
2023-01-13T22:51:19.304Z,3.50
2023-01-13T22:53:46.955Z,3.40
2023-01-13T22:56:20.103Z,3.90
2023-01-13T22:58:48.955Z,5.80
2023-01-13T23:01:17.850Z,4.90
2023-01-13T23:03:48.061Z,5.20
2023-01-13T23:06:18.137Z,5.80
2023-01-13T23:08:47.073Z,4.80
2023-01-13T23:11:17.482Z,5.00
2023-01-13T23:13:46.209Z,4.90
2023-01-13T23:16:18.088Z,4.70
2023-01-13T23:18:48.169Z,4.20
2023-01-13T23:21:20.325Z,4.00
2023-01-13T23:23:48.627Z,4.30
2023-01-13T23:26:17.864Z,3.30
2023-01-13T23:28:45.607Z,3.50
2023-01-13T23:31:20.909Z,4.70
2023-01-13T23:33:49.031Z,14.30
2023-01-13T23:36:23.590Z,23.50
2023-01-13T23:38:52.730Z,17.40
2023-01-13T23:41:22.918Z,12.30
2023-01-13T23:43:53.892Z,32.10
2023-01-13T23:46:22.171Z,28.50
2023-01-13T23:48:51.154Z,9.50
2023-01-13T23:51:21.397Z,7.40
2023-01-13T23:53:50.493Z,7.80
2023-01-13T23:56:21.676Z,6.90
2023-01-13T23:58:50.168Z,4.60
